Time;durP1;ratioP1;P1;durP2;ratioP2;P2;SDS_P1;SDS_P2;PMS_P1;PMS_P2;Temp;Humidity;BMP_temperature;BMP_pressure;BME280_temperature;BME280_humidity;BME280_pressure;Samples;Min_cycle;Max_cycle;Signal;HPM_P1;HPM_P2
2023/10/22 00:02:13;;;;;;;7.70;1.50;;;13.50;99.90;;;;;;5000518;28;20396;-72
2023/10/22 00:04:39;;;;;;;3.40;1.42;;;13.50;99.90;;;;;;5018902;28;20562;-72
2023/10/22 00:07:06;;;;;;;7.78;1.55;;;13.50;99.90;;;;;;5016476;28;20128;-72
2023/10/22 00:09:35;;;;;;;3.83;1.25;;;13.50;99.90;;;;;;5022258;28;20045;-73
2023/10/22 00:12:01;;;;;;;5.72;1.48;;;13.40;99.90;;;;;;5019897;28;20049;-72
2023/10/22 00:14:27;;;;;;;5.63;1.20;;;13.40;99.90;;;;;;5023515;28;20049;-72
2023/10/22 00:16:53;;;;;;;4.82;1.60;;;13.40;99.90;;;;;;5003734;28;20582;-73
2023/10/22 00:19:19;;;;;;;6.03;1.50;;;13.40;99.90;;;;;;5021428;28;20044;-73
2023/10/22 00:21:46;;;;;;;4.25;1.00;;;13.40;99.90;;;;;;5018629;28;20098;-72
2023/10/22 00:24:12;;;;;;;5.90;1.30;;;13.40;99.90;;;;;;5033058;28;20354;-73
2023/10/22 00:26:39;;;;;;;6.70;1.45;;;13.40;99.90;;;;;;5015334;28;20068;-72
2023/10/22 00:29:06;;;;;;;7.43;1.45;;;13.40;99.90;;;;;;5022688;28;20117;-72
2023/10/22 00:31:32;;;;;;;5.13;1.30;;;13.40;99.90;;;;;;5017956;28;20131;-73
2023/10/22 00:33:57;;;;;;;4.88;1.48;;;13.40;99.90;;;;;;5000568;28;20042;-73
2023/10/22 00:36:26;;;;;;;3.22;1.00;;;13.40;99.90;;;;;;4999883;28;20637;-73
2023/10/22 00:38:52;;;;;;;4.10;1.45;;;13.40;99.90;;;;;;5005718;28;20042;-73
2023/10/22 00:41:18;;;;;;;5.32;1.40;;;13.40;99.90;;;;;;5018270;28;20045;-72
2023/10/22 00:43:44;;;;;;;5.18;1.40;;;13.40;99.90;;;;;;5019991;28;20045;-72
2023/10/22 00:46:21;;;;;;;5.35;1.13;;;13.40;99.90;;;;;;5001468;28;20038;-73
2023/10/22 00:48:50;;;;;;;5.43;1.02;;;13.40;99.90;;;;;;5021103;28;20045;-73
2023/10/22 00:51:16;;;;;;;5.10;1.27;;;13.40;99.90;;;;;;5018552;28;20037;-73
2023/10/22 00:53:44;;;;;;;3.30;0.88;;;13.40;99.90;;;;;;5036697;28;20385;-73
2023/10/22 00:56:14;;;;;;;4.82;1.10;;;13.40;99.90;;;;;;5012615;28;20061;-74
2023/10/22 00:58:41;;;;;;;3.70;1.10;;;13.40;99.90;;;;;;5016984;28;20053;-73
2023/10/22 01:01:07;;;;;;;4.03;0.80;;;13.40;99.90;;;;;;5006137;28;20041;-73
2023/10/22 01:03:38;;;;;;;5.25;1.25;;;13.40;99.90;;;;;;5021139;28;20535;-72
2023/10/22 01:06:05;;;;;;;5.38;0.90;;;13.40;99.90;;;;;;5009019;28;20119;-72
2023/10/22 01:08:35;;;;;;;6.43;1.30;;;13.30;99.90;;;;;;5017609;28;20053;-72
2023/10/22 01:11:09;;;;;;;4.47;1.20;;;13.30;99.90;;;;;;5034931;28;20045;-73
2023/10/22 01:13:35;;;;;;;6.70;1.13;;;13.30;99.90;;;;;;5018836;28;20049;-72
2023/10/22 01:16:01;;;;;;;2.65;0.88;;;13.30;99.90;;;;;;5005990;28;20121;-72
2023/10/22 01:18:27;;;;;;;3.97;1.10;;;13.30;99.90;;;;;;5002127;28;20034;-72
2023/10/22 01:20:53;;;;;;;4.75;1.08;;;13.30;99.90;;;;;;5001045;28;20044;-72
2023/10/22 01:23:19;;;;;;;4.03;1.33;;;13.20;99.90;;;;;;5020425;28;20034;-73
2023/10/22 01:25:45;;;;;;;6.95;1.50;;;13.20;99.90;;;;;;5022485;28;20048;-73
2023/10/22 01:28:11;;;;;;;5.95;1.20;;;13.10;99.90;;;;;;5017499;28;20397;-74
2023/10/22 01:30:36;;;;;;;3.92;1.35;;;13.00;99.90;;;;;;5019706;28;20060;-72
2023/10/22 01:33:02;;;;;;;6.03;1.38;;;12.90;99.90;;;;;;5020136;28;20049;-73
2023/10/22 01:35:28;;;;;;;5.65;1.35;;;12.80;99.90;;;;;;5036509;28;20060;-74
2023/10/22 01:37:54;;;;;;;6.72;1.60;;;12.70;99.90;;;;;;5001155;28;20403;-73
2023/10/22 01:40:19;;;;;;;6.10;1.27;;;12.60;99.90;;;;;;5019129;28;20178;-74
2023/10/22 01:42:45;;;;;;;7.32;1.42;;;12.60;99.90;;;;;;5014563;28;20056;-74
2023/10/22 01:45:12;;;;;;;6.05;1.40;;;12.50;99.90;;;;;;5018594;28;20084;-75
2023/10/22 01:47:38;;;;;;;6.57;2.03;;;12.50;99.90;;;;;;5004307;28;20199;-75
2023/10/22 01:50:05;;;;;;;5.40;1.20;;;12.50;99.90;;;;;;5006436;28;20040;-75
2023/10/22 01:52:36;;;;;;;5.60;1.38;;;12.40;99.90;;;;;;5030079;28;20165;-75
2023/10/22 01:55:02;;;;;;;3.97;1.38;;;12.40;99.90;;;;;;5002608;28;20060;-74
2023/10/22 01:57:28;;;;;;;5.00;1.40;;;12.40;99.90;;;;;;5017256;28;20496;-75
2023/10/22 01:59:53;;;;;;;5.05;1.17;;;12.30;99.90;;;;;;5021945;28;20104;-74
2023/10/22 02:02:20;;;;;;;4.13;1.23;;;12.30;99.90;;;;;;5036788;28;20049;-74
2023/10/22 02:04:45;;;;;;;5.38;1.20;;;12.30;99.90;;;;;;5021704;28;20574;-75
2023/10/22 02:07:11;;;;;;;6.45;1.60;;;12.30;99.90;;;;;;5008459;28;20053;-73
2023/10/22 02:09:37;;;;;;;7.10;1.35;;;12.30;99.90;;;;;;5003784;28;20060;-74
2023/10/22 02:12:05;;;;;;;5.75;1.40;;;12.20;99.90;;;;;;5038900;28;20049;-75
2023/10/22 02:14:31;;;;;;;6.97;1.67;;;12.20;99.90;;;;;;5003785;28;20048;-75
2023/10/22 02:16:56;;;;;;;6.60;1.80;;;12.20;99.90;;;;;;5012424;28;20030;-75
2023/10/22 02:19:22;;;;;;;5.43;1.63;;;12.20;99.90;;;;;;5027843;28;20431;-76
2023/10/22 02:21:48;;;;;;;8.40;2.30;;;12.10;99.90;;;;;;5026709;28;20053;-76
2023/10/22 02:24:14;;;;;;;9.38;2.53;;;12.10;99.90;;;;;;5010532;28;20044;-75
2023/10/22 02:26:40;;;;;;;5.47;2.50;;;12.10;99.90;;;;;;5025221;28;20037;-75
2023/10/22 02:29:05;;;;;;;6.80;2.78;;;12.10;99.90;;;;;;5017188;28;20044;-75
2023/10/22 02:31:31;;;;;;;7.25;2.80;;;12.10;99.90;;;;;;5003467;28;20048;-75
2023/10/22 02:34:04;;;;;;;7.93;3.03;;;12.00;99.90;;;;;;5019705;28;20052;-75
2023/10/22 02:36:29;;;;;;;6.55;2.45;;;12.00;99.90;;;;;;5006020;28;20049;-75
2023/10/22 02:38:56;;;;;;;7.78;3.05;;;12.00;99.90;;;;;;5020514;28;20551;-75
2023/10/22 02:41:22;;;;;;;8.10;2.72;;;12.00;99.90;;;;;;5024210;28;20579;-75
2023/10/22 02:43:48;;;;;;;7.80;2.60;;;11.90;99.90;;;;;;5035059;28;21042;-74
2023/10/22 02:46:15;;;;;;;5.78;2.30;;;11.90;99.90;;;;;;5043199;28;20038;-75
2023/10/22 02:48:41;;;;;;;9.30;2.85;;;11.90;99.90;;;;;;5038128;28;20045;-74
2023/10/22 02:51:07;;;;;;;7.63;2.42;;;11.90;99.90;;;;;;5008518;28;20435;-74
2023/10/22 02:53:33;;;;;;;5.95;2.50;;;11.90;99.90;;;;;;5040738;28;20049;-75
2023/10/22 02:56:03;;;;;;;6.07;2.50;;;11.90;99.90;;;;;;5002694;28;20045;-75
2023/10/22 02:58:29;;;;;;;4.35;2.05;;;11.90;99.90;;;;;;5011970;28;20484;-75
2023/10/22 03:01:03;;;;;;;11.00;2.42;;;11.90;99.90;;;;;;5025267;28;20447;-74
2023/10/22 03:03:29;;;;;;;4.90;2.22;;;11.90;99.90;;;;;;5003753;28;20507;-74
2023/10/22 03:05:58;;;;;;;9.82;2.05;;;11.90;99.90;;;;;;5008570;28;20033;-74
2023/10/22 03:08:25;;;;;;;5.23;1.97;;;11.90;99.90;;;;;;5017902;28;20049;-74
2023/10/22 03:10:50;;;;;;;4.43;1.92;;;11.90;99.90;;;;;;5008168;28;20346;-74
2023/10/22 03:13:16;;;;;;;5.13;1.88;;;11.90;99.90;;;;;;5018063;28;20041;-74
2023/10/22 03:15:42;;;;;;;4.13;2.05;;;11.90;99.90;;;;;;5009969;28;20055;-74
2023/10/22 03:18:08;;;;;;;5.05;2.20;;;12.00;99.90;;;;;;5020623;28;20037;-74
2023/10/22 03:20:37;;;;;;;6.00;2.20;;;12.00;99.90;;;;;;5006543;28;20508;-76
2023/10/22 03:23:03;;;;;;;6.03;2.42;;;12.00;99.90;;;;;;5006066;28;20048;-76
2023/10/22 03:25:29;;;;;;;4.60;2.17;;;12.00;99.90;;;;;;4999486;28;20159;-76
2023/10/22 03:27:55;;;;;;;7.45;2.42;;;12.00;99.90;;;;;;5004832;28;20037;-74
2023/10/22 03:30:22;;;;;;;6.55;2.15;;;12.00;99.90;;;;;;5016989;28;20042;-76
2023/10/22 03:32:47;;;;;;;6.40;2.42;;;12.00;99.90;;;;;;5006646;28;20052;-74
2023/10/22 03:35:13;;;;;;;5.15;2.20;;;12.00;99.90;;;;;;5020536;28;20037;-74
2023/10/22 03:37:40;;;;;;;6.70;2.30;;;12.00;99.90;;;;;;5039859;28;20314;-74
2023/10/22 03:40:06;;;;;;;5.97;2.75;;;12.00;99.90;;;;;;5021989;28;20041;-75
2023/10/22 03:42:33;;;;;;;4.43;2.22;;;12.10;99.90;;;;;;5008398;28;20107;-75
2023/10/22 03:45:00;;;;;;;7.05;2.28;;;12.10;99.90;;;;;;5006407;28;20459;-76
2023/10/22 03:47:28;;;;;;;6.60;2.30;;;12.10;99.90;;;;;;5015112;28;20049;-77
2023/10/22 03:49:54;;;;;;;8.30;2.88;;;12.10;99.90;;;;;;5019130;28;20497;-77
2023/10/22 03:52:20;;;;;;;6.43;2.45;;;12.10;99.90;;;;;;4997814;28;20053;-76
2023/10/22 03:54:46;;;;;;;4.57;2.13;;;12.00;99.90;;;;;;5020332;28;20045;-76
2023/10/22 03:57:12;;;;;;;4.18;2.45;;;12.00;99.90;;;;;;5007563;28;20033;-76
2023/10/22 03:59:37;;;;;;;6.53;2.75;;;12.00;99.90;;;;;;5008892;28;20049;-76
2023/10/22 04:02:06;;;;;;;6.85;3.17;;;12.00;99.90;;;;;;5012682;28;20072;-76
2023/10/22 04:04:32;;;;;;;9.82;2.88;;;12.00;99.90;;;;;;5033552;28;20044;-76
2023/10/22 04:06:58;;;;;;;4.50;2.60;;;12.00;99.90;;;;;;5009355;28;20053;-76
2023/10/22 04:09:25;;;;;;;6.30;2.42;;;12.10;99.90;;;;;;5019354;28;20056;-76
2023/10/22 04:11:51;;;;;;;5.25;2.63;;;12.00;99.90;;;;;;5032835;28;20038;-77
2023/10/22 04:14:16;;;;;;;7.03;2.75;;;12.00;99.90;;;;;;5021169;28;20136;-76
2023/10/22 04:16:42;;;;;;;5.05;2.67;;;12.00;99.90;;;;;;5022563;28;20049;-76
2023/10/22 04:19:08;;;;;;;4.55;2.35;;;12.00;99.90;;;;;;5023578;28;20049;-76
2023/10/22 04:21:37;;;;;;;5.50;2.92;;;12.00;99.90;;;;;;5001394;28;20049;-77
2023/10/22 04:24:02;;;;;;;4.65;2.80;;;12.00;99.90;;;;;;5010346;28;20041;-75
2023/10/22 04:26:29;;;;;;;5.47;2.88;;;12.00;99.90;;;;;;5026653;28;20048;-74
2023/10/22 04:28:54;;;;;;;4.40;2.88;;;12.00;99.90;;;;;;5004714;28;20466;-75
2023/10/22 04:31:20;;;;;;;4.55;3.40;;;12.00;99.90;;;;;;5011255;28;20076;-75
2023/10/22 04:33:46;;;;;;;5.13;3.50;;;12.00;99.90;;;;;;5004325;28;20042;-74
2023/10/22 04:36:16;;;;;;;7.53;4.03;;;12.10;99.90;;;;;;5020102;28;20041;-75
2023/10/22 04:38:42;;;;;;;5.90;3.75;;;12.00;99.90;;;;;;4994429;28;20057;-74
2023/10/22 04:41:11;;;;;;;6.38;3.75;;;12.00;99.90;;;;;;5019770;28;20057;-75
2023/10/22 04:43:37;;;;;;;4.93;3.55;;;12.10;99.90;;;;;;5002514;28;20455;-75
2023/10/22 04:46:03;;;;;;;6.28;4.65;;;12.00;99.90;;;;;;5018414;28;20045;-75
2023/10/22 04:48:30;;;;;;;5.25;3.92;;;12.10;99.90;;;;;;5010442;28;20037;-75
2023/10/22 04:50:57;;;;;;;5.97;3.92;;;12.00;99.90;;;;;;5010097;28;20054;-75
2023/10/22 04:53:23;;;;;;;5.93;3.70;;;12.10;99.90;;;;;;5010346;28;20041;-75
2023/10/22 04:55:56;;;;;;;6.68;4.53;;;12.10;99.90;;;;;;5006089;28;20037;-74
2023/10/22 04:58:22;;;;;;;6.82;4.57;;;12.10;99.90;;;;;;5012499;28;20042;-75
2023/10/22 05:00:49;;;;;;;6.80;4.13;;;12.10;99.90;;;;;;5006521;28;20199;-80
2023/10/22 05:03:15;;;;;;;5.88;3.97;;;12.10;99.90;;;;;;5019301;28;20046;-81
2023/10/22 05:05:40;;;;;;;3.80;3.40;;;12.10;99.90;;;;;;5014137;28;20072;-80
2023/10/22 05:08:07;;;;;;;4.88;4.00;;;12.20;99.90;;;;;;5013677;28;20072;-80
2023/10/22 05:10:42;;;;;;;5.78;4.30;;;12.10;99.90;;;;;;5023886;28;20049;-80
2023/10/22 05:13:09;;;;;;;4.40;4.00;;;12.20;99.90;;;;;;5016699;28;20045;-80
2023/10/22 05:15:35;;;;;;;6.53;4.32;;;12.10;99.90;;;;;;5010408;28;20049;-80
2023/10/22 05:18:05;;;;;;;4.93;4.30;;;12.10;99.90;;;;;;5008922;28;20049;-80
2023/10/22 05:20:31;;;;;;;7.43;5.35;;;12.20;99.90;;;;;;5015180;28;20472;-80
2023/10/22 05:22:57;;;;;;;5.90;4.75;;;12.20;99.90;;;;;;5017099;28;20049;-80
2023/10/22 05:25:26;;;;;;;5.60;5.10;;;12.20;99.90;;;;;;5014077;28;20057;-81
2023/10/22 05:27:52;;;;;;;5.40;4.10;;;12.20;99.90;;;;;;5005587;28;20050;-80
2023/10/22 05:30:18;;;;;;;6.20;5.07;;;12.20;99.90;;;;;;5013324;28;20514;-79
2023/10/22 05:32:43;;;;;;;7.85;4.82;;;12.30;99.90;;;;;;4994367;28;20288;-80
2023/10/22 05:35:09;;;;;;;5.50;4.95;;;12.30;99.90;;;;;;4995479;28;20136;-80
2023/10/22 05:37:35;;;;;;;4.20;3.80;;;12.30;99.90;;;;;;5016932;28;20046;-80
2023/10/22 05:40:01;;;;;;;4.53;4.07;;;12.40;99.90;;;;;;5015904;28;20146;-81
2023/10/22 05:42:26;;;;;;;4.18;3.30;;;12.30;99.90;;;;;;5005711;28;20180;-81
2023/10/22 05:44:52;;;;;;;3.75;3.33;;;12.40;99.90;;;;;;4999230;28;20041;-80
2023/10/22 05:47:18;;;;;;;3.40;2.60;;;12.40;99.90;;;;;;5001644;28;20038;-79
2023/10/22 05:49:44;;;;;;;3.45;2.33;;;12.40;99.90;;;;;;5019282;28;20132;-79
2023/10/22 05:52:10;;;;;;;3.42;1.88;;;12.50;99.90;;;;;;5022085;28;20154;-80
2023/10/22 05:54:36;;;;;;;3.65;1.95;;;12.50;99.90;;;;;;5013593;28;20531;-81
2023/10/22 05:57:02;;;;;;;2.97;1.30;;;12.50;99.90;;;;;;5019891;28;20037;-80
2023/10/22 05:59:28;;;;;;;4.25;0.98;;;12.50;99.90;;;;;;5017176;28;20046;-79
2023/10/22 06:01:54;;;;;;;4.55;1.40;;;12.50;99.90;;;;;;5010207;28;20100;-80
2023/10/22 06:04:23;;;;;;;1.77;1.10;;;12.50;99.90;;;;;;5017384;28;20037;-81
2023/10/22 06:06:49;;;;;;;6.18;1.70;;;12.50;99.90;;;;;;5022011;28;20081;-82
2023/10/22 06:09:14;;;;;;;6.65;1.40;;;12.40;99.90;;;;;;5021193;28;20081;-81
2023/10/22 06:11:40;;;;;;;5.22;1.92;;;12.40;99.90;;;;;;5008467;28;20042;-84
2023/10/22 06:14:09;;;;;;;4.35;2.08;;;12.30;99.90;;;;;;5004036;28;20463;-82
2023/10/22 06:16:35;;;;;;;7.38;2.17;;;12.30;99.90;;;;;;5018386;28;20049;-81
2023/10/22 06:19:00;;;;;;;4.40;1.48;;;12.30;99.90;;;;;;5008100;28;20065;-76
2023/10/22 06:21:26;;;;;;;6.78;1.77;;;12.20;99.90;;;;;;5000997;28;20101;-76
2023/10/22 06:23:52;;;;;;;8.95;2.13;;;12.10;99.90;;;;;;5011658;28;20491;-76
2023/10/22 06:26:18;;;;;;;7.00;2.20;;;12.10;99.90;;;;;;5016355;28;20392;-75
2023/10/22 06:28:44;;;;;;;9.68;2.30;;;12.00;99.90;;;;;;5008420;28;20054;-76
2023/10/22 06:31:11;;;;;;;5.00;1.77;;;12.00;99.90;;;;;;5019309;28;20041;-75
2023/10/22 06:33:38;;;;;;;7.10;2.28;;;12.00;99.90;;;;;;5020829;28;20500;-76
2023/10/22 06:36:18;;;;;;;5.30;2.00;;;12.00;99.90;;;;;;5010427;28;20492;-76
2023/10/22 06:38:45;;;;;;;8.25;2.20;;;12.00;99.90;;;;;;5016943;28;20049;-76
2023/10/22 06:41:19;;;;;;;5.20;2.78;;;12.00;99.90;;;;;;5008890;28;20026;-76
2023/10/22 06:43:45;;;;;;;6.45;2.50;;;12.00;99.90;;;;;;5015833;28;20042;-76
2023/10/22 06:46:13;;;;;;;7.45;3.17;;;12.00;99.90;;;;;;5018856;28;20034;-75
2023/10/22 06:48:39;;;;;;;4.78;2.17;;;12.00;99.90;;;;;;5012060;28;20492;-75
2023/10/22 06:51:13;;;;;;;6.68;2.97;;;11.90;99.90;;;;;;5021534;28;20085;-76
2023/10/22 06:53:39;;;;;;;4.72;2.50;;;12.00;99.90;;;;;;5014392;28;20139;-75
2023/10/22 06:56:06;;;;;;;6.32;2.67;;;12.00;99.90;;;;;;5008977;28;20041;-75
2023/10/22 06:58:33;;;;;;;5.78;2.55;;;12.00;99.90;;;;;;5025635;28;20045;-76
2023/10/22 07:01:05;;;;;;;7.32;3.00;;;11.90;99.90;;;;;;5028412;28;20053;-75
2023/10/22 07:03:37;;;;;;;5.95;2.88;;;11.90;99.90;;;;;;5014352;28;20041;-76
2023/10/22 07:06:03;;;;;;;6.53;3.80;;;11.90;99.90;;;;;;5007698;28;20501;-76
2023/10/22 07:08:29;;;;;;;8.85;4.00;;;11.80;99.90;;;;;;5034222;28;20046;-76
2023/10/22 07:10:55;;;;;;;8.75;4.95;;;11.80;99.90;;;;;;5018644;28;20046;-76
2023/10/22 07:13:22;;;;;;;9.02;5.55;;;11.80;99.90;;;;;;4999150;28;20124;-76
2023/10/22 07:15:48;;;;;;;12.88;6.65;;;11.80;99.90;;;;;;5024739;28;20570;-75
2023/10/22 07:18:14;;;;;;;7.63;6.22;;;11.80;99.90;;;;;;5021307;28;20096;-75
2023/10/22 07:20:40;;;;;;;12.95;8.45;;;11.80;99.90;;;;;;5021360;28;20435;-75
2023/10/22 07:23:06;;;;;;;9.25;7.43;;;11.80;99.90;;;;;;5020277;28;20116;-75
2023/10/22 07:25:33;;;;;;;12.57;7.60;;;11.70;99.90;;;;;;5014756;28;20049;-75
2023/10/22 07:27:59;;;;;;;14.48;7.35;;;11.80;99.90;;;;;;5006690;28;20461;-75
2023/10/22 07:30:25;;;;;;;11.85;7.60;;;11.80;99.90;;;;;;5020472;28;20050;-75
2023/10/22 07:32:53;;;;;;;13.20;8.18;;;11.80;99.90;;;;;;5025398;28;20043;-75
2023/10/22 07:35:20;;;;;;;13.30;7.88;;;11.80;99.90;;;;;;5019942;28;20052;-75
2023/10/22 07:37:46;;;;;;;11.40;6.85;;;11.80;99.90;;;;;;5024855;28;20053;-75
2023/10/22 07:40:17;;;;;;;9.30;5.90;;;11.80;99.90;;;;;;5001368;28;20412;-75
2023/10/22 07:42:44;;;;;;;13.23;6.88;;;11.80;99.90;;;;;;5000609;28;20046;-75
2023/10/22 07:45:11;;;;;;;11.25;8.02;;;11.80;99.90;;;;;;5034443;28;20072;-75
2023/10/22 07:47:37;;;;;;;14.63;7.32;;;11.70;99.90;;;;;;5020833;28;20646;-75
2023/10/22 07:50:04;;;;;;;10.48;5.63;;;11.70;99.90;;;;;;5018238;28;20053;-75
2023/10/22 07:52:37;;;;;;;9.07;5.13;;;11.70;99.90;;;;;;4997575;28;20512;-76
2023/10/22 07:55:06;;;;;;;11.05;5.95;;;11.80;99.90;;;;;;5008074;28;20107;-75
2023/10/22 07:57:32;;;;;;;12.38;6.75;;;11.70;99.90;;;;;;5017698;28;20053;-75
2023/10/22 07:59:58;;;;;;;10.90;6.13;;;11.70;99.90;;;;;;5007295;28;20123;-75
2023/10/22 08:02:24;;;;;;;12.98;7.78;;;11.70;99.90;;;;;;5004832;28;20049;-75
2023/10/22 08:04:50;;;;;;;11.82;6.25;;;11.70;99.90;;;;;;5017886;28;20096;-75
2023/10/22 08:07:19;;;;;;;8.20;5.40;;;11.80;99.90;;;;;;5021524;28;20038;-75
2023/10/22 08:09:46;;;;;;;8.40;5.72;;;11.80;99.90;;;;;;5016888;28;20080;-75
2023/10/22 08:12:12;;;;;;;11.77;5.82;;;11.80;99.90;;;;;;5014247;28;20109;-75
2023/10/22 08:14:38;;;;;;;7.82;4.75;;;11.80;99.90;;;;;;5013961;28;20530;-75
2023/10/22 08:17:07;;;;;;;6.78;4.25;;;11.80;99.90;;;;;;5023615;28;20081;-75
2023/10/22 08:19:32;;;;;;;7.03;4.50;;;11.80;99.90;;;;;;5022320;28;20049;-74
2023/10/22 08:21:58;;;;;;;8.15;4.03;;;11.80;99.90;;;;;;5012994;28;20052;-74
2023/10/22 08:24:24;;;;;;;9.20;4.60;;;11.90;99.90;;;;;;5024814;28;20103;-75
2023/10/22 08:26:50;;;;;;;8.30;4.07;;;11.80;99.90;;;;;;5023684;28;20053;-75
2023/10/22 08:29:15;;;;;;;8.77;3.80;;;11.90;99.90;;;;;;5011238;28;20049;-75
2023/10/22 08:31:41;;;;;;;6.70;4.00;;;11.90;99.90;;;;;;5015926;28;20081;-75
2023/10/22 08:34:10;;;;;;;7.07;4.20;;;11.90;99.90;;;;;;5006867;28;20046;-75
2023/10/22 08:36:36;;;;;;;8.55;4.85;;;12.00;99.90;;;;;;5022139;28;20057;-75
2023/10/22 08:39:02;;;;;;;7.70;3.53;;;12.00;99.90;;;;;;5006176;28;20448;-75
2023/10/22 08:41:43;;;;;;;9.60;3.75;;;12.00;99.90;;;;;;5025403;28;20045;-75
2023/10/22 08:44:10;;;;;;;8.43;4.15;;;12.10;99.90;;;;;;5022162;28;20040;-75
2023/10/22 08:46:35;;;;;;;6.03;4.28;;;12.10;99.90;;;;;;5022853;28;20049;-75
2023/10/22 08:49:06;;;;;;;8.07;4.65;;;12.20;99.90;;;;;;5011381;28;20050;-75
2023/10/22 08:51:32;;;;;;;7.85;4.68;;;12.20;99.90;;;;;;5018687;28;20045;-75
2023/10/22 08:53:58;;;;;;;8.82;4.45;;;12.30;99.90;;;;;;4999540;28;20074;-75
2023/10/22 08:56:25;;;;;;;9.40;4.95;;;12.30;99.90;;;;;;5012821;28;20077;-75
2023/10/22 08:58:51;;;;;;;6.60;3.33;;;12.40;99.90;;;;;;5038239;28;20056;-75
2023/10/22 09:01:18;;;;;;;8.25;3.50;;;12.50;99.90;;;;;;5003503;28;20033;-75
2023/10/22 09:03:44;;;;;;;9.90;3.72;;;12.60;99.90;;;;;;5005229;28;20428;-74
2023/10/22 09:06:09;;;;;;;9.15;3.35;;;12.60;99.90;;;;;;5004694;28;20044;-75
2023/10/22 09:08:45;;;;;;;6.72;3.55;;;12.70;99.90;;;;;;5021874;28;20044;-75
2023/10/22 09:11:20;;;;;;;6.93;3.17;;;12.70;99.90;;;;;;5003251;28;20129;-75
2023/10/22 09:13:47;;;;;;;8.77;3.95;;;12.80;99.90;;;;;;5020503;28;20389;-75
2023/10/22 09:16:32;;;;;;;7.43;3.42;;;12.90;99.90;;;;;;5006082;28;20637;-75
2023/10/22 09:19:01;;;;;;;10.55;3.50;;;12.90;99.90;;;;;;5005254;28;20037;-74
2023/10/22 09:21:44;;;;;;;7.80;2.90;;;12.90;99.90;;;;;;5001914;28;20048;-74
2023/10/22 09:24:10;;;;;;;7.13;2.72;;;12.90;99.90;;;;;;5004443;28;20049;-74
2023/10/22 09:26:43;;;;;;;6.47;2.97;;;12.80;99.90;;;;;;5015579;28;20057;-74
2023/10/22 09:29:09;;;;;;;9.60;2.88;;;12.90;99.90;;;;;;5018300;28;20075;-74
2023/10/22 09:31:35;;;;;;;5.93;2.60;;;12.90;99.90;;;;;;5040276;28;20049;-74
2023/10/22 09:34:03;;;;;;;7.28;2.88;;;12.90;99.90;;;;;;5000314;28;20061;-74
2023/10/22 09:36:29;;;;;;;5.18;2.58;;;12.90;99.90;;;;;;5004720;28;20056;-74
2023/10/22 09:38:56;;;;;;;4.47;2.30;;;13.00;99.90;;;;;;5021184;28;20053;-74
2023/10/22 09:41:25;;;;;;;5.53;2.58;;;13.00;99.90;;;;;;5038435;28;20041;-74
2023/10/22 09:43:51;;;;;;;6.40;2.65;;;13.00;99.90;;;;;;5017705;28;20045;-73
2023/10/22 09:46:21;;;;;;;5.35;2.53;;;13.00;99.90;;;;;;5006038;28;20375;-74
2023/10/22 09:48:50;;;;;;;4.75;2.20;;;13.00;99.90;;;;;;5005229;28;20104;-74
2023/10/22 09:51:17;;;;;;;6.22;2.35;;;13.10;99.90;;;;;;5015571;28;20278;-76
2023/10/22 09:53:52;;;;;;;8.02;2.58;;;13.10;99.90;;;;;;5020631;28;20430;-74
2023/10/22 09:56:21;;;;;;;5.43;1.70;;;13.20;99.90;;;;;;5016753;28;20387;-74
2023/10/22 09:58:48;;;;;;;5.15;2.00;;;13.20;99.90;;;;;;5021867;28;20054;-74
2023/10/22 10:01:15;;;;;;;3.58;1.50;;;13.20;99.90;;;;;;5005296;28;20041;-73
2023/10/22 10:03:42;;;;;;;4.60;1.33;;;13.20;99.90;;;;;;5017638;28;20037;-74
2023/10/22 10:06:09;;;;;;;3.65;1.17;;;13.10;99.90;;;;;;5007617;28;20531;-74
2023/10/22 10:08:39;;;;;;;5.30;1.65;;;13.20;99.90;;;;;;5037096;28;20564;-74
2023/10/22 10:11:08;;;;;;;3.80;1.65;;;13.20;99.90;;;;;;5015861;28;20496;-80
2023/10/22 10:13:37;;;;;;;4.17;1.50;;;13.20;99.90;;;;;;5021079;28;20500;-80
2023/10/22 10:16:06;;;;;;;6.38;2.05;;;13.30;99.90;;;;;;5015948;28;20379;-74
2023/10/22 10:19:10;;;;;;;4.10;1.30;;;13.40;99.90;;;;;;5004784;28;20049;-74
2023/10/22 10:21:36;;;;;;;3.15;1.10;;;13.30;99.90;;;;;;5019996;28;20049;-74
2023/10/22 10:24:24;;;;;;;2.72;1.20;;;13.30;99.90;;;;;;5030530;28;20044;-74
2023/10/22 10:26:56;;;;;;;4.03;1.02;;;13.20;99.90;;;;;;5003489;28;20104;-74
2023/10/22 10:29:32;;;;;;;3.55;1.42;;;13.20;99.90;;;;;;5036687;28;20049;-74
2023/10/22 10:32:13;;;;;;;3.45;1.13;;;13.20;99.90;;;;;;5018217;28;20538;-74
2023/10/22 10:34:41;;;;;;;4.28;1.20;;;13.20;99.90;;;;;;5023455;28;20476;-74
2023/10/22 10:37:15;;;;;;;4.45;1.40;;;13.20;99.90;;;;;;5017742;28;20092;-74
2023/10/22 10:39:45;;;;;;;3.22;1.30;;;13.20;99.90;;;;;;5019567;28;20056;-74
2023/10/22 10:42:32;;;;;;;7.25;1.25;;;13.10;99.90;;;;;;5035184;28;20401;-76
2023/10/22 10:44:58;;;;;;;4.70;1.50;;;13.00;99.90;;;;;;5010146;28;20049;-74
2023/10/22 10:47:24;;;;;;;4.43;1.17;;;13.00;99.90;;;;;;5020045;28;20768;-75
2023/10/22 10:50:06;;;;;;;2.92;1.20;;;13.00;99.90;;;;;;5023729;28;20033;-74
2023/10/22 10:52:34;;;;;;;4.72;1.15;;;12.90;99.90;;;;;;5023717;28;20351;-74
2023/10/22 10:55:18;;;;;;;4.32;1.10;;;12.90;99.90;;;;;;5020027;28;20053;-75
2023/10/22 10:57:49;;;;;;;2.17;1.02;;;12.90;99.90;;;;;;5022567;28;20131;-74
2023/10/22 11:00:20;;;;;;;3.63;1.00;;;12.90;99.90;;;;;;5020969;28;20053;-74
2023/10/22 11:02:47;;;;;;;4.53;1.20;;;12.90;99.90;;;;;;5006654;28;20069;-74
2023/10/22 11:05:18;;;;;;;5.47;1.60;;;13.00;99.90;;;;;;5021467;28;20037;-74
2023/10/22 11:07:44;;;;;;;4.03;1.30;;;13.10;99.90;;;;;;5005170;28;20448;-74
2023/10/22 11:10:16;;;;;;;6.28;1.92;;;13.20;99.90;;;;;;5009125;28;20427;-73
2023/10/22 11:12:43;;;;;;;4.30;2.05;;;13.30;99.90;;;;;;5019094;28;20506;-74
2023/10/22 11:15:11;;;;;;;4.93;2.30;;;13.30;99.90;;;;;;5002546;28;20045;-74
2023/10/22 11:17:38;;;;;;;6.30;2.25;;;13.20;99.90;;;;;;5005424;28;20395;-73
2023/10/22 11:20:05;;;;;;;5.40;1.90;;;13.10;99.90;;;;;;5005582;28;20072;-74
2023/10/22 11:22:31;;;;;;;4.85;2.10;;;13.10;99.90;;;;;;4999652;28;20504;-74
2023/10/22 11:25:01;;;;;;;7.80;2.83;;;13.00;99.90;;;;;;5021011;28;20054;-74
2023/10/22 11:27:27;;;;;;;5.15;2.42;;;13.10;99.90;;;;;;5011880;28;20679;-74
2023/10/22 11:29:54;;;;;;;4.88;2.88;;;13.20;99.90;;;;;;5004242;28;20496;-74
2023/10/22 11:32:21;;;;;;;5.00;2.50;;;13.30;99.90;;;;;;5012266;28;20050;-74
2023/10/22 11:34:50;;;;;;;5.60;2.30;;;13.40;99.90;;;;;;5000706;28;20540;-74
2023/10/22 11:37:19;;;;;;;4.72;2.53;;;13.50;99.90;;;;;;5021057;28;20041;-73
2023/10/22 11:39:45;;;;;;;4.00;1.90;;;13.60;99.90;;;;;;5021795;28;20891;-74
2023/10/22 11:42:11;;;;;;;3.53;1.50;;;13.60;99.90;;;;;;5020705;28;20130;-74
2023/10/22 11:44:42;;;;;;;5.72;1.58;;;13.50;99.90;;;;;;5019801;28;20432;-73
2023/10/22 11:47:30;;;;;;;3.60;1.42;;;13.40;99.90;;;;;;5020456;28;20060;-74
2023/10/22 11:49:56;;;;;;;4.78;1.92;;;13.30;99.90;;;;;;5019682;28;20063;-74
2023/10/22 11:52:34;;;;;;;4.53;1.60;;;13.30;99.90;;;;;;5020687;28;20107;-74
2023/10/22 11:55:01;;;;;;;4.22;1.52;;;13.20;99.90;;;;;;5019956;28;20053;-76
2023/10/22 11:57:27;;;;;;;3.03;1.30;;;13.20;99.90;;;;;;5006431;28;20324;-74
2023/10/22 11:59:53;;;;;;;3.33;1.63;;;13.30;99.90;;;;;;5023382;28;20046;-74
2023/10/22 12:02:18;;;;;;;4.20;1.52;;;13.30;99.90;;;;;;5020008;28;20136;-73
2023/10/22 12:04:45;;;;;;;3.55;1.40;;;13.30;99.90;;;;;;5017887;28;20049;-73
2023/10/22 12:07:11;;;;;;;4.53;1.55;;;13.40;99.90;;;;;;5008290;28;20053;-73
2023/10/22 12:09:36;;;;;;;5.20;1.20;;;13.50;99.90;;;;;;5020572;28;20053;-74
2023/10/22 12:12:05;;;;;;;2.85;0.90;;;13.60;99.90;;;;;;5021185;28;20045;-74
2023/10/22 12:14:31;;;;;;;2.90;1.10;;;13.80;99.90;;;;;;5003218;28;20045;-73
2023/10/22 12:16:57;;;;;;;3.60;1.50;;;13.90;99.90;;;;;;5021871;28;20087;-74
2023/10/22 12:19:22;;;;;;;3.88;1.20;;;14.10;99.90;;;;;;5021027;28;20045;-74
2023/10/22 12:21:49;;;;;;;3.58;1.38;;;14.20;99.90;;;;;;5005640;28;20110;-73
2023/10/22 12:24:14;;;;;;;3.65;1.42;;;14.30;99.90;;;;;;5019288;28;20475;-74
2023/10/22 12:26:40;;;;;;;4.07;1.10;;;14.30;99.90;;;;;;5017794;28;20073;-74
2023/10/22 12:29:06;;;;;;;4.80;1.10;;;14.30;99.90;;;;;;5006398;28;20515;-73
2023/10/22 12:31:32;;;;;;;3.28;1.15;;;14.30;99.90;;;;;;5006448;28;20052;-74
2023/10/22 12:33:58;;;;;;;2.03;0.82;;;14.30;99.90;;;;;;5017368;28;20046;-74
2023/10/22 12:36:24;;;;;;;2.40;0.90;;;14.30;99.90;;;;;;5020343;28;20042;-83
2023/10/22 12:38:53;;;;;;;4.93;1.17;;;14.30;99.90;;;;;;5019179;28;20045;-81
2023/10/22 12:41:19;;;;;;;4.57;1.53;;;14.30;99.90;;;;;;5037355;28;20033;-82
2023/10/22 12:43:45;;;;;;;2.20;0.95;;;14.20;99.90;;;;;;5003465;28;20357;-81
2023/10/22 12:46:11;;;;;;;4.60;1.05;;;14.20;99.90;;;;;;5039128;28;20094;-82
2023/10/22 12:48:36;;;;;;;3.25;0.98;;;14.10;99.90;;;;;;5015775;28;20580;-81